createdAt,value
2023-03-22T00:02:04.424Z,100619.97
2023-03-22T00:04:31.295Z,100629.22
2023-03-22T00:06:57.793Z,100629.22
2023-03-22T00:09:24.399Z,100626.97
2023-03-22T00:11:51.125Z,100625.47
2023-03-22T00:14:18.765Z,100618.44
2023-03-22T00:16:46.322Z,100632.72
2023-03-22T00:19:12.906Z,100616.19
2023-03-22T00:21:39.359Z,100617.28
2023-03-22T00:24:06.516Z,100608.03
2023-03-22T00:26:32.972Z,100609.19
2023-03-22T00:28:59.760Z,100608.72
2023-03-22T00:31:26.349Z,100596.88
2023-03-22T00:33:52.833Z,100596.63
2023-03-22T00:36:19.305Z,100589.84
2023-03-22T00:38:46.009Z,100589.03
2023-03-22T00:41:18.616Z,100588.88
2023-03-22T00:43:46.789Z,100579.34
2023-03-22T00:46:14.651Z,100572.69
2023-03-22T00:48:41.681Z,100581.22
2023-03-22T00:51:09.098Z,100569.38
2023-03-22T00:53:42.406Z,100566.50
2023-03-22T00:56:10.880Z,100567.72
2023-03-22T00:58:37.348Z,100552.66
2023-03-22T01:01:03.992Z,100558.84
2023-03-22T01:03:30.801Z,100553.63
2023-03-22T01:05:57.795Z,100558.72
2023-03-22T01:08:24.332Z,100564.06
2023-03-22T01:10:51.166Z,100554.84
2023-03-22T01:13:18.193Z,100544.63
2023-03-22T01:15:45.161Z,100538.97
2023-03-22T01:18:11.705Z,100534.22
2023-03-22T01:20:38.683Z,100555.34
2023-03-22T01:23:05.378Z,100547.59
2023-03-22T01:25:32.011Z,100539.66
2023-03-22T01:27:58.972Z,100536.59
2023-03-22T01:30:25.963Z,100536.03
2023-03-22T01:32:52.571Z,100534.91
2023-03-22T01:35:19.197Z,100534.47
2023-03-22T01:37:45.801Z,100533.66
2023-03-22T01:40:15.337Z,100506.88
2023-03-22T01:42:42.174Z,100516.31
2023-03-22T01:45:14.698Z,100523.72
2023-03-22T01:47:52.144Z,100508.03
2023-03-22T01:50:20.274Z,100499.97
2023-03-22T01:52:48.332Z,100504.69
2023-03-22T01:55:18.179Z,100497.97
2023-03-22T01:57:45.618Z,100489.50
2023-03-22T02:00:15.440Z,100505.41
2023-03-22T02:02:48.718Z,100496.78
2023-03-22T02:05:15.528Z,100481.59
2023-03-22T02:07:43.136Z,100489.91
2023-03-22T02:10:15.602Z,100491.91
2023-03-22T02:13:03.232Z,100478.13
2023-03-22T02:15:42.938Z,100482.53
2023-03-22T02:18:41.653Z,100480.06
2023-03-22T02:21:45.343Z,100474.00
2023-03-22T02:24:46.260Z,100478.50
2023-03-22T02:27:23.560Z,100464.38
2023-03-22T02:30:07.063Z,100457.28
2023-03-22T02:32:47.662Z,100442.78
2023-03-22T02:35:14.082Z,100452.28
2023-03-22T02:38:10.510Z,100453.94
2023-03-22T02:41:11.345Z,100444.31
2023-03-22T02:43:50.060Z,100444.44
2023-03-22T02:46:22.853Z,100413.16
2023-03-22T02:49:01.493Z,100439.69
2023-03-22T02:51:45.862Z,100439.69
2023-03-22T02:54:26.296Z,100435.97
2023-03-22T02:57:00.320Z,100434.31
2023-03-22T02:59:29.575Z,100414.44
2023-03-22T03:01:58.654Z,100442.16
2023-03-22T03:04:29.958Z,100431.84
2023-03-22T03:07:01.824Z,100432.44
2023-03-22T03:09:29.613Z,100400.69
2023-03-22T03:11:56.069Z,100427.59
2023-03-22T03:14:32.584Z,100432.66
2023-03-22T03:17:44.091Z,100433.63
2023-03-22T03:20:46.431Z,100427.81
2023-03-22T03:23:31.190Z,100433.53
2023-03-22T03:26:01.627Z,100421.97
2023-03-22T03:29:05.932Z,100417.31
2023-03-22T03:31:45.606Z,100418.63
2023-03-22T03:34:33.721Z,100412.47
2023-03-22T03:37:05.840Z,100411.75
2023-03-22T03:39:37.787Z,100412.00
2023-03-22T03:42:06.625Z,100420.91
2023-03-22T03:44:36.164Z,100419.53
2023-03-22T03:47:03.510Z,100418.09
2023-03-22T03:49:30.233Z,100424.28
2023-03-22T03:51:56.696Z,100423.69
2023-03-22T03:54:23.352Z,100419.06
2023-03-22T03:56:50.865Z,100416.44
2023-03-22T03:59:18.855Z,100424.38
2023-03-22T04:01:50.272Z,100426.44
2023-03-22T04:04:26.709Z,100426.28
2023-03-22T04:06:58.134Z,100426.66
2023-03-22T04:09:27.427Z,100429.75
2023-03-22T04:11:55.393Z,100432.50
2023-03-22T04:14:25.176Z,100415.69
2023-03-22T04:16:52.593Z,100427.41
2023-03-22T04:19:19.767Z,100418.28
2023-03-22T04:21:46.759Z,100426.22
2023-03-22T04:24:14.090Z,100421.38
2023-03-22T04:26:41.245Z,100410.47
2023-03-22T04:29:07.699Z,100413.06
2023-03-22T04:31:35.670Z,100394.13
2023-03-22T04:34:05.731Z,100396.72
2023-03-22T04:36:36.307Z,100390.34
2023-03-22T04:39:05.856Z,100396.63
2023-03-22T04:41:33.254Z,100399.59
2023-03-22T04:44:03.312Z,100405.50
2023-03-22T04:46:32.056Z,100396.97
2023-03-22T04:48:58.687Z,100402.19
2023-03-22T04:51:26.282Z,100395.91
2023-03-22T04:53:54.080Z,100397.25
2023-03-22T04:56:21.533Z,100390.75
2023-03-22T04:58:48.163Z,100399.47
2023-03-22T05:01:17.072Z,100393.41
2023-03-22T05:03:45.688Z,100391.41
2023-03-22T05:06:12.479Z,100387.72
2023-03-22T05:08:39.103Z,100390.59
2023-03-22T05:11:12.176Z,100389.84
2023-03-22T05:13:39.168Z,100395.81
2023-03-22T05:16:06.855Z,100398.28
2023-03-22T05:18:33.653Z,100404.44
2023-03-22T05:21:03.895Z,100395.56
2023-03-22T05:23:30.546Z,100396.72
2023-03-22T05:25:58.279Z,100400.72
2023-03-22T05:28:27.195Z,100397.16
2023-03-22T05:30:56.575Z,100397.91
2023-03-22T05:33:23.526Z,100392.91
2023-03-22T05:35:51.149Z,100409.72
2023-03-22T05:38:17.963Z,100386.28
2023-03-22T05:40:45.455Z,100409.03
2023-03-22T05:43:12.060Z,100402.00
2023-03-22T05:45:38.719Z,100391.13
2023-03-22T05:48:05.542Z,100392.19
2023-03-22T05:50:32.429Z,100406.91
2023-03-22T05:52:59.113Z,100403.22
2023-03-22T05:55:26.157Z,100414.25
2023-03-22T05:57:54.703Z,100401.44
2023-03-22T06:00:21.757Z,100413.28
2023-03-22T06:02:52.248Z,100404.63
2023-03-22T06:05:18.911Z,100398.44
2023-03-22T06:07:47.920Z,100409.63
2023-03-22T06:10:15.408Z,100411.84
2023-03-22T06:12:42.001Z,100408.28
2023-03-22T06:15:09.726Z,100415.38
2023-03-22T06:17:36.522Z,100413.56
2023-03-22T06:20:09.347Z,100409.19
2023-03-22T06:22:36.512Z,100400.88
2023-03-22T06:25:03.468Z,100397.69
2023-03-22T06:27:29.952Z,100410.94
2023-03-22T06:29:56.406Z,100399.28
2023-03-22T06:32:23.677Z,100411.72
2023-03-22T06:34:54.313Z,100402.91
2023-03-22T06:37:21.456Z,100396.25
2023-03-22T06:39:48.136Z,100402.97
2023-03-22T06:42:14.785Z,100398.13
2023-03-22T06:44:43.899Z,100392.41
2023-03-22T06:47:11.664Z,100403.19
2023-03-22T06:49:38.742Z,100400.47
2023-03-22T06:52:05.664Z,100391.59
2023-03-22T06:54:32.194Z,100397.09
2023-03-22T06:56:58.666Z,100394.59
2023-03-22T06:59:25.259Z,100383.75
2023-03-22T07:01:51.698Z,100387.72
2023-03-22T07:04:19.932Z,100387.91
2023-03-22T07:06:46.654Z,100381.06
2023-03-22T07:09:13.137Z,100384.28
2023-03-22T07:11:39.613Z,100382.72
2023-03-22T07:14:06.333Z,100386.66
2023-03-22T07:16:32.841Z,100391.50
2023-03-22T07:18:59.439Z,100382.00
2023-03-22T07:21:25.921Z,100381.31
2023-03-22T07:23:52.562Z,100381.47
2023-03-22T07:26:19.146Z,100382.44
2023-03-22T07:28:46.132Z,100387.41
2023-03-22T07:31:13.760Z,100376.50
2023-03-22T07:33:41.900Z,100386.84
2023-03-22T07:36:09.461Z,100386.56
2023-03-22T07:38:36.460Z,100380.63
2023-03-22T07:41:03.427Z,100393.47
2023-03-22T07:43:29.880Z,100389.28
2023-03-22T07:45:57.125Z,100396.72
2023-03-22T07:48:23.990Z,100390.28
2023-03-22T07:50:55.421Z,100391.25
2023-03-22T07:53:21.865Z,100400.59
2023-03-22T07:55:48.392Z,100413.28
2023-03-22T07:58:14.994Z,100390.53
2023-03-22T08:00:41.809Z,100396.88
2023-03-22T08:03:11.701Z,100393.44
2023-03-22T08:05:42.107Z,100409.97
2023-03-22T08:08:09.416Z,100393.97
2023-03-22T08:10:35.934Z,100405.38
2023-03-22T08:13:02.412Z,100398.09
2023-03-22T08:15:28.916Z,100409.63
2023-03-22T08:17:58.102Z,100403.56
2023-03-22T08:20:27.564Z,100402.03
2023-03-22T08:22:54.615Z,100407.41
2023-03-22T08:25:21.837Z,100405.22
2023-03-22T08:27:48.315Z,100401.78
2023-03-22T08:30:15.623Z,100397.53
2023-03-22T08:32:42.207Z,100413.06
2023-03-22T08:35:09.546Z,100408.81
2023-03-22T08:37:36.293Z,100422.31
2023-03-22T08:40:06.467Z,100408.22
2023-03-22T08:42:32.968Z,100425.06
2023-03-22T08:44:59.394Z,100406.06
2023-03-22T08:47:26.026Z,100398.91
2023-03-22T08:49:52.467Z,100400.84
2023-03-22T08:52:18.929Z,100403.94
2023-03-22T08:54:45.421Z,100412.75
2023-03-22T08:57:11.925Z,100392.41
2023-03-22T08:59:38.384Z,100398.47
2023-03-22T09:02:05.659Z,100394.34
2023-03-22T09:04:32.230Z,100402.75
2023-03-22T09:06:58.837Z,100382.63
2023-03-22T09:09:25.392Z,100385.53
2023-03-22T09:11:51.939Z,100405.94
2023-03-22T09:14:18.427Z,100384.69
2023-03-22T09:16:45.548Z,100389.38
2023-03-22T09:19:12.093Z,100406.31
2023-03-22T09:21:38.602Z,100387.72
2023-03-22T09:24:05.282Z,100393.94
2023-03-22T09:26:32.077Z,100404.16
2023-03-22T09:28:58.561Z,100395.44
2023-03-22T09:31:25.172Z,100408.09
2023-03-22T09:33:51.713Z,100387.44
2023-03-22T09:36:18.609Z,100370.19
2023-03-22T09:38:46.612Z,100387.16
2023-03-22T09:41:27.224Z,100389.06
2023-03-22T09:43:58.266Z,100402.63
2023-03-22T09:46:31.976Z,100394.22
2023-03-22T09:49:01.607Z,100385.78
2023-03-22T09:51:49.457Z,100372.94
2023-03-22T09:54:29.524Z,100360.94
2023-03-22T09:57:07.385Z,100369.59
2023-03-22T09:59:39.992Z,100348.44
2023-03-22T10:02:34.557Z,100378.88
2023-03-22T10:05:13.264Z,100371.66
2023-03-22T10:07:49.028Z,100363.97
2023-03-22T10:10:20.259Z,100355.59
2023-03-22T10:13:07.542Z,100360.53
2023-03-22T10:15:40.837Z,100361.22
2023-03-22T10:18:15.801Z,100352.94
2023-03-22T10:21:08.066Z,100353.44
2023-03-22T10:23:49.165Z,100357.47
2023-03-22T10:26:22.653Z,100359.22
2023-03-22T10:29:23.887Z,100371.97
2023-03-22T10:31:50.416Z,100362.34
2023-03-22T10:34:33.621Z,100370.88
2023-03-22T10:37:04.125Z,100368.56
2023-03-22T10:39:32.501Z,100358.06
2023-03-22T10:42:02.858Z,100372.69
2023-03-22T10:44:34.854Z,100372.84
2023-03-22T10:47:07.887Z,100380.00
2023-03-22T10:49:39.969Z,100379.31
2023-03-22T10:52:34.674Z,100366.09
2023-03-22T10:55:04.341Z,100355.75
2023-03-22T10:57:31.178Z,100364.03
2023-03-22T10:59:58.062Z,100362.91
2023-03-22T11:02:28.017Z,100368.97
2023-03-22T11:05:00.585Z,100358.50
2023-03-22T11:07:36.237Z,100388.97
2023-03-22T11:10:08.407Z,100370.75
2023-03-22T11:12:49.421Z,100360.44
2023-03-22T11:15:33.900Z,100388.16
2023-03-22T11:18:12.057Z,100367.63
2023-03-22T11:20:42.184Z,100364.84
2023-03-22T11:23:17.732Z,100363.31
2023-03-22T11:25:47.834Z,100370.91
2023-03-22T11:28:34.903Z,100366.47
2023-03-22T11:31:11.055Z,100360.16
2023-03-22T11:33:38.372Z,100376.81
2023-03-22T11:36:16.504Z,100353.69
2023-03-22T11:38:44.923Z,100368.16
2023-03-22T11:41:29.704Z,100356.00
2023-03-22T11:44:10.536Z,100366.34
2023-03-22T11:46:38.112Z,100344.84
2023-03-22T11:49:14.619Z,100334.66
2023-03-22T11:51:42.474Z,100344.41
2023-03-22T11:54:30.075Z,100338.31
2023-03-22T11:57:01.424Z,100335.16
2023-03-22T11:59:30.693Z,100335.84
2023-03-22T12:02:19.164Z,100349.91
2023-03-22T12:04:49.039Z,100342.88
2023-03-22T12:07:19.484Z,100331.44
2023-03-22T12:10:25.132Z,100333.09
2023-03-22T12:13:04.463Z,100332.25
2023-03-22T12:15:41.020Z,100322.06
2023-03-22T12:18:16.652Z,100297.25
2023-03-22T12:20:55.567Z,100321.06
2023-03-22T12:23:27.272Z,100322.41
2023-03-22T12:26:00.030Z,100323.63
2023-03-22T12:28:42.045Z,100320.22
2023-03-22T12:31:17.307Z,100312.88
2023-03-22T12:33:48.008Z,100313.69
2023-03-22T12:36:20.675Z,100325.81
2023-03-22T12:38:54.450Z,100325.03
2023-03-22T12:41:27.783Z,100326.69
2023-03-22T12:44:00.337Z,100321.56
2023-03-22T12:46:33.379Z,100312.34
2023-03-22T12:49:11.539Z,100312.06
2023-03-22T12:51:38.313Z,100317.41
2023-03-22T12:54:05.539Z,100317.97
2023-03-22T12:56:41.114Z,100333.25
2023-03-22T12:59:42.269Z,100318.66
2023-03-22T13:02:16.075Z,100305.84
2023-03-22T13:04:43.247Z,100316.19
2023-03-22T13:07:49.713Z,100314.91
2023-03-22T13:10:31.795Z,100320.69
2023-03-22T13:13:07.541Z,100324.81
2023-03-22T13:15:41.872Z,100320.13
2023-03-22T13:18:37.641Z,100309.50
2023-03-22T13:21:22.333Z,100290.41
2023-03-22T13:24:04.644Z,100308.47
2023-03-22T13:26:36.756Z,100318.81
2023-03-22T13:29:19.082Z,100301.47
2023-03-22T13:31:57.553Z,100311.63
2023-03-22T13:34:31.867Z,100305.25
2023-03-22T13:36:59.310Z,100305.94
2023-03-22T13:39:32.967Z,100297.41
2023-03-22T13:42:17.151Z,100301.97
2023-03-22T13:44:46.050Z,100282.09
2023-03-22T13:47:34.116Z,100292.69
2023-03-22T13:50:07.506Z,100297.25
2023-03-22T13:52:38.549Z,100295.16
2023-03-22T13:55:18.503Z,100298.47
2023-03-22T13:57:58.840Z,100293.75
2023-03-22T14:00:31.519Z,100297.47
2023-03-22T14:03:01.884Z,100277.63
2023-03-22T14:05:32.665Z,100281.97
2023-03-22T14:08:01.905Z,100285.72
2023-03-22T14:10:38.501Z,100279.44
2023-03-22T14:13:17.204Z,100295.00
2023-03-22T14:15:53.566Z,100271.25
2023-03-22T14:18:36.390Z,100264.50
2023-03-22T14:21:11.461Z,100261.88
